Terminal Aerodrome Forecast
Issued by NWS Cleveland, OH

Home | Current Version | Previous Version | Text Only | Print | Product List | Glossary On
Versions: 1 2 3 4 5 6 7 8 9 10 11 12 13 14 15 16 17 18 19 20 21
000
FTUS41 KCLE 301600 AAB
TAFYNG
TAF AMD
KYNG 301619Z 3016/3112 31015G25KT 3/4SM -SHSN BLSN OVC012
     FM301800 32012G22KT 4SM -SHSN SCT015 OVC025
     FM302000 32012G22KT P6SM OVC030
     FM310400 26004KT P6SM SCT150 BKN200=

USA.gov is the U.S. government's official web portal to all federal, state and local government web resources and services.